createdAt,value
2023-04-09T00:01:24.244Z,7.50
2023-04-09T00:03:55.758Z,6.30
2023-04-09T00:06:31.559Z,6.30
2023-04-09T00:09:01.054Z,7.00
2023-04-09T00:11:31.717Z,7.10
2023-04-09T00:14:00.765Z,5.60
2023-04-09T00:16:30.145Z,6.50
2023-04-09T00:18:58.967Z,7.30
2023-04-09T00:21:29.094Z,6.70
2023-04-09T00:23:57.667Z,6.30
2023-04-09T00:26:26.746Z,5.40
2023-04-09T00:28:55.643Z,5.40
2023-04-09T00:31:24.448Z,6.10
2023-04-09T00:33:53.431Z,7.20
2023-04-09T00:36:22.112Z,6.90
2023-04-09T00:38:54.700Z,6.50
2023-04-09T00:41:24.037Z,5.90
2023-04-09T00:43:52.874Z,6.50
2023-04-09T00:46:21.518Z,6.50
2023-04-09T00:48:51.677Z,7.10
2023-04-09T00:51:22.196Z,7.60
2023-04-09T00:53:51.520Z,7.70
2023-04-09T00:56:24.046Z,8.10
2023-04-09T00:58:56.646Z,6.70
2023-04-09T01:01:25.693Z,7.10
2023-04-09T01:03:55.373Z,7.20
2023-04-09T01:06:54.048Z,6.70
2023-04-09T01:09:35.769Z,8.00
2023-04-09T01:12:41.062Z,7.70
2023-04-09T01:15:18.674Z,8.60
2023-04-09T01:18:13.265Z,7.50
2023-04-09T01:21:18.407Z,8.40
2023-04-09T01:24:21.804Z,7.50
2023-04-09T01:27:08.196Z,9.10
2023-04-09T01:29:53.687Z,8.40
2023-04-09T01:32:25.883Z,8.00
2023-04-09T01:34:56.260Z,7.20
2023-04-09T01:37:27.255Z,8.20
2023-04-09T01:39:57.323Z,8.90
2023-04-09T01:42:27.100Z,8.00
2023-04-09T01:44:56.704Z,8.20
2023-04-09T01:47:26.785Z,8.60
2023-04-09T01:49:58.523Z,8.40
2023-04-09T01:52:42.856Z,9.50
2023-04-09T01:55:13.962Z,7.50
2023-04-09T01:57:45.963Z,8.80
2023-04-09T02:00:16.709Z,8.00
2023-04-09T02:03:12.855Z,8.70
2023-04-09T02:05:53.695Z,9.30
2023-04-09T02:08:25.128Z,8.70
2023-04-09T02:11:01.515Z,9.30
2023-04-09T02:13:35.029Z,8.40
2023-04-09T02:16:06.987Z,9.50
2023-04-09T02:18:36.958Z,8.80
2023-04-09T02:21:06.445Z,10.00
2023-04-09T02:23:37.927Z,9.30
2023-04-09T02:26:08.515Z,10.90
2023-04-09T02:28:37.590Z,9.60
2023-04-09T02:31:06.566Z,10.20
2023-04-09T02:33:35.433Z,10.60
2023-04-09T02:36:04.799Z,8.80
2023-04-09T02:38:33.744Z,11.50
2023-04-09T02:41:02.868Z,10.50
2023-04-09T02:43:31.584Z,10.80
2023-04-09T02:46:00.481Z,10.30
2023-04-09T02:48:29.256Z,10.50
2023-04-09T02:51:02.175Z,11.10
2023-04-09T02:53:30.987Z,9.80
2023-04-09T02:56:00.066Z,9.40
2023-04-09T02:58:28.400Z,10.40
2023-04-09T03:00:57.021Z,10.50
2023-04-09T03:03:26.348Z,9.00
2023-04-09T03:05:55.939Z,10.30
2023-04-09T03:08:26.945Z,11.10
2023-04-09T03:10:55.531Z,10.70
2023-04-09T03:13:28.599Z,10.70
2023-04-09T03:15:57.008Z,10.90
2023-04-09T03:18:28.233Z,11.60
2023-04-09T03:20:56.698Z,10.10
2023-04-09T03:23:27.228Z,10.80
2023-04-09T03:26:06.541Z,11.40
2023-04-09T03:29:01.848Z,11.80
2023-04-09T03:31:31.402Z,11.50
2023-04-09T03:34:03.906Z,11.70
2023-04-09T03:36:33.649Z,10.10
2023-04-09T03:39:09.688Z,10.60
2023-04-09T03:41:41.026Z,10.80
2023-04-09T03:44:12.995Z,10.70
2023-04-09T03:46:50.060Z,10.70
2023-04-09T03:49:19.385Z,10.50
2023-04-09T03:51:47.868Z,9.60
2023-04-09T03:54:17.377Z,11.40
2023-04-09T03:56:47.852Z,10.10
2023-04-09T03:59:18.348Z,11.20
2023-04-09T04:01:51.300Z,10.00
2023-04-09T04:04:23.687Z,11.00
2023-04-09T04:06:57.103Z,11.00
2023-04-09T04:09:52.397Z,10.50
2023-04-09T04:12:21.067Z,10.40
2023-04-09T04:15:07.314Z,11.90
2023-04-09T04:17:41.465Z,11.90
2023-04-09T04:20:19.311Z,10.20
2023-04-09T04:22:56.378Z,10.30
2023-04-09T04:25:25.598Z,10.70
2023-04-09T04:27:56.218Z,11.30
2023-04-09T04:30:28.063Z,10.10
2023-04-09T04:33:03.047Z,10.40
2023-04-09T04:35:37.546Z,10.30
2023-04-09T04:38:06.983Z,11.20
2023-04-09T04:40:37.859Z,10.70
2023-04-09T04:43:08.815Z,11.40
2023-04-09T04:45:40.903Z,9.70
2023-04-09T04:48:15.920Z,10.80
2023-04-09T04:50:48.090Z,9.90
2023-04-09T04:53:20.757Z,9.70
2023-04-09T04:55:53.438Z,9.80
2023-04-09T04:58:26.411Z,11.20
2023-04-09T05:00:58.620Z,9.90
2023-04-09T05:03:27.694Z,9.90
2023-04-09T05:06:13.421Z,10.90
2023-04-09T05:08:47.567Z,11.00
2023-04-09T05:11:19.659Z,9.90
2023-04-09T05:13:51.348Z,11.30
2023-04-09T05:16:27.284Z,10.90
2023-04-09T05:19:04.995Z,10.70
2023-04-09T05:21:38.596Z,10.00
2023-04-09T05:24:11.798Z,9.90
2023-04-09T05:26:42.186Z,10.00
2023-04-09T05:29:17.852Z,11.30
2023-04-09T05:31:50.726Z,10.40
2023-04-09T05:34:29.339Z,11.00
2023-04-09T05:37:02.782Z,10.80
2023-04-09T05:39:37.605Z,9.50
2023-04-09T05:42:13.510Z,10.10
2023-04-09T05:44:56.966Z,10.30
2023-04-09T05:47:32.090Z,10.10
2023-04-09T05:50:22.657Z,11.00
2023-04-09T05:53:07.009Z,10.40
2023-04-09T05:55:43.602Z,11.00
2023-04-09T05:58:23.533Z,9.20
2023-04-09T06:01:01.131Z,9.70
2023-04-09T06:03:42.487Z,10.00
2023-04-09T06:06:19.605Z,11.30
2023-04-09T06:08:52.588Z,9.60
2023-04-09T06:11:31.366Z,9.50
2023-04-09T06:14:03.775Z,9.60
2023-04-09T06:16:35.645Z,10.70
2023-04-09T06:19:05.944Z,10.70
2023-04-09T06:21:41.803Z,8.90
2023-04-09T06:24:11.737Z,8.20
2023-04-09T06:26:43.125Z,10.00
2023-04-09T06:29:14.979Z,10.10
2023-04-09T06:31:48.644Z,9.30
2023-04-09T06:34:18.492Z,9.50
2023-04-09T06:36:48.492Z,10.60
2023-04-09T06:39:18.327Z,10.00
2023-04-09T06:41:46.689Z,10.10
2023-04-09T06:44:27.970Z,9.30
2023-04-09T06:46:56.284Z,9.10
2023-04-09T06:49:24.831Z,9.80
2023-04-09T06:51:53.828Z,10.20
2023-04-09T06:54:22.023Z,10.20
2023-04-09T06:56:50.554Z,9.50
2023-04-09T06:59:18.764Z,9.10
2023-04-09T07:01:47.982Z,8.20
2023-04-09T07:04:16.384Z,8.30
2023-04-09T07:06:46.569Z,9.60
2023-04-09T07:09:17.799Z,11.40
2023-04-09T07:11:47.921Z,9.70
2023-04-09T07:14:17.940Z,9.90
2023-04-09T07:16:47.282Z,11.20
2023-04-09T07:19:16.730Z,10.90
2023-04-09T07:21:45.681Z,11.10
2023-04-09T07:24:13.998Z,10.10
2023-04-09T07:26:42.906Z,9.80
2023-04-09T07:29:11.383Z,10.20
2023-04-09T07:31:39.700Z,10.70
2023-04-09T07:34:09.680Z,10.80
2023-04-09T07:36:45.649Z,10.40
2023-04-09T07:39:14.273Z,11.20
2023-04-09T07:41:42.805Z,11.70
2023-04-09T07:44:11.388Z,11.10
2023-04-09T07:46:40.096Z,13.40
2023-04-09T07:49:08.368Z,10.00
2023-04-09T07:51:37.452Z,10.80
2023-04-09T07:54:07.163Z,10.20
2023-04-09T07:56:35.594Z,10.80
2023-04-09T07:59:03.929Z,12.10
2023-04-09T08:01:32.030Z,10.50
2023-04-09T08:04:00.712Z,9.80
2023-04-09T08:06:29.306Z,11.00
2023-04-09T08:08:58.063Z,9.70
2023-04-09T08:11:27.350Z,10.20
2023-04-09T08:13:58.050Z,11.30
2023-04-09T08:16:27.472Z,10.30
2023-04-09T08:18:57.203Z,11.90
2023-04-09T08:21:25.577Z,11.70
2023-04-09T08:24:00.829Z,12.20
2023-04-09T08:26:31.189Z,10.70
2023-04-09T08:28:59.423Z,12.60
2023-04-09T08:31:27.724Z,12.50
2023-04-09T08:33:55.970Z,12.10
2023-04-09T08:36:26.980Z,12.90
2023-04-09T08:38:56.733Z,10.00
2023-04-09T08:41:30.706Z,12.00
2023-04-09T08:44:01.158Z,10.70
2023-04-09T08:46:30.307Z,13.50
2023-04-09T08:49:02.732Z,10.90
2023-04-09T08:51:31.676Z,9.80
2023-04-09T08:54:04.380Z,12.40
2023-04-09T08:56:33.482Z,11.40
2023-04-09T08:59:01.585Z,10.90
2023-04-09T09:01:33.688Z,8.90
2023-04-09T09:04:09.269Z,13.90
2023-04-09T09:06:41.360Z,10.60
2023-04-09T09:09:19.095Z,10.60
2023-04-09T09:11:52.243Z,10.90
2023-04-09T09:14:21.144Z,12.30
2023-04-09T09:16:55.816Z,10.90
2023-04-09T09:19:27.221Z,10.40
2023-04-09T09:22:01.993Z,11.00
2023-04-09T09:27:02.954Z,12.00
2023-04-09T09:29:31.960Z,10.50
2023-04-09T09:32:00.973Z,10.10
2023-04-09T09:34:29.172Z,10.60
2023-04-09T09:36:58.052Z,10.50
2023-04-09T09:39:46.642Z,12.30
2023-04-09T09:42:14.691Z,10.30
2023-04-09T09:44:43.062Z,11.50
2023-04-09T09:47:16.657Z,10.90
2023-04-09T09:49:45.055Z,10.80
2023-04-09T09:52:16.228Z,11.10
2023-04-09T09:54:53.330Z,9.90
2023-04-09T09:57:26.302Z,9.80
2023-04-09T10:00:01.512Z,9.90
2023-04-09T10:02:53.504Z,10.40
2023-04-09T10:05:27.016Z,9.70
2023-04-09T10:07:59.344Z,9.50
2023-04-09T10:10:28.498Z,10.10
2023-04-09T10:12:58.138Z,9.80
2023-04-09T10:15:29.212Z,10.90
2023-04-09T10:17:58.646Z,12.20
2023-04-09T10:20:46.690Z,11.20
2023-04-09T10:23:31.343Z,10.70
2023-04-09T10:25:59.726Z,11.20
2023-04-09T10:28:28.006Z,10.60
2023-04-09T10:30:56.233Z,10.70
2023-04-09T10:33:28.201Z,9.80
2023-04-09T10:36:05.160Z,9.50
2023-04-09T10:38:36.534Z,10.40
2023-04-09T10:41:16.036Z,10.40
2023-04-09T10:43:48.364Z,11.50
2023-04-09T10:46:37.799Z,10.70
2023-04-09T10:49:14.703Z,10.60
2023-04-09T10:51:53.969Z,11.30
2023-04-09T10:54:34.540Z,12.10
2023-04-09T10:57:09.781Z,10.20
2023-04-09T10:59:42.794Z,11.20
2023-04-09T11:02:40.826Z,10.90
2023-04-09T11:05:31.969Z,10.30
2023-04-09T11:08:08.148Z,11.40
2023-04-09T11:10:51.723Z,10.30
2023-04-09T11:13:22.105Z,10.70
2023-04-09T11:15:50.369Z,9.40
2023-04-09T11:18:28.376Z,9.90
2023-04-09T11:21:04.052Z,10.40
2023-04-09T11:23:36.113Z,11.00
2023-04-09T11:26:05.488Z,10.40
2023-04-09T11:28:36.789Z,10.70
2023-04-09T11:31:08.001Z,9.10
2023-04-09T11:33:36.391Z,12.30
2023-04-09T11:36:11.529Z,9.60
2023-04-09T11:38:40.185Z,10.40
2023-04-09T11:41:13.723Z,9.80
2023-04-09T11:43:42.470Z,9.00
2023-04-09T11:46:11.872Z,9.30
2023-04-09T11:48:42.868Z,10.40
2023-04-09T11:51:11.815Z,9.80
2023-04-09T11:53:40.898Z,11.10
2023-04-09T11:56:09.264Z,9.90
2023-04-09T11:58:37.830Z,9.10
2023-04-09T12:01:06.873Z,10.50
2023-04-09T12:03:37.929Z,9.80
2023-04-09T12:06:09.417Z,10.30
2023-04-09T12:08:38.228Z,9.80
2023-04-09T12:11:15.524Z,11.70
2023-04-09T12:13:45.553Z,10.40
2023-04-09T12:16:15.703Z,9.90
2023-04-09T12:18:44.448Z,10.80
2023-04-09T12:21:14.017Z,10.20
2023-04-09T12:23:42.232Z,9.20
2023-04-09T12:26:10.602Z,10.20
2023-04-09T12:28:38.788Z,9.60
2023-04-09T12:31:12.071Z,10.70
2023-04-09T12:33:40.692Z,10.00
2023-04-09T12:36:09.206Z,10.50
2023-04-09T12:38:37.412Z,9.00
2023-04-09T12:41:07.924Z,10.00
2023-04-09T12:43:36.926Z,10.20
2023-04-09T12:46:06.270Z,8.20
2023-04-09T12:48:35.263Z,9.20
2023-04-09T12:51:04.077Z,9.50
2023-04-09T12:53:37.354Z,9.90
2023-04-09T12:56:07.185Z,10.80
2023-04-09T12:58:39.538Z,9.30
2023-04-09T13:01:08.390Z,12.00
2023-04-09T13:03:36.795Z,10.40
2023-04-09T13:06:13.490Z,9.40
2023-04-09T13:08:42.759Z,10.60
2023-04-09T13:11:11.944Z,9.90
2023-04-09T13:13:42.577Z,9.70
2023-04-09T13:16:10.770Z,10.10
2023-04-09T13:18:38.928Z,11.00
2023-04-09T13:21:08.222Z,9.60
2023-04-09T13:23:36.494Z,9.90
2023-04-09T13:26:05.631Z,9.70
2023-04-09T13:28:33.877Z,8.80
2023-04-09T13:31:03.311Z,10.00
2023-04-09T13:33:31.359Z,9.30
2023-04-09T13:35:59.746Z,9.40
2023-04-09T13:38:28.149Z,10.40
2023-04-09T13:40:57.007Z,9.20
2023-04-09T13:43:28.504Z,10.70
2023-04-09T13:45:57.647Z,8.70
2023-04-09T13:48:26.053Z,9.50
2023-04-09T13:50:54.513Z,10.00
2023-04-09T13:53:25.790Z,9.70
2023-04-09T13:55:57.327Z,8.90
2023-04-09T13:58:27.960Z,9.20
2023-04-09T14:00:57.649Z,9.10
2023-04-09T14:03:26.238Z,9.80
2023-04-09T14:05:56.775Z,9.20
2023-04-09T14:08:25.867Z,9.20
2023-04-09T14:10:54.439Z,10.30
2023-04-09T14:13:22.859Z,9.30
2023-04-09T14:15:51.031Z,9.00
2023-04-09T14:18:19.168Z,8.70
2023-04-09T14:20:47.648Z,8.90
2023-04-09T14:23:16.455Z,9.60
2023-04-09T14:25:45.226Z,9.30
2023-04-09T14:28:14.534Z,9.10
2023-04-09T14:30:45.382Z,9.10
2023-04-09T14:33:13.539Z,8.00
2023-04-09T14:35:41.961Z,10.40
2023-04-09T14:38:10.707Z,9.50
2023-04-09T14:40:38.995Z,8.90
2023-04-09T14:43:07.394Z,8.80
2023-04-09T14:45:36.605Z,8.70
2023-04-09T14:48:06.215Z,9.30
2023-04-09T14:50:37.106Z,9.50
2023-04-09T14:53:05.993Z,9.70
2023-04-09T14:55:34.385Z,8.60
2023-04-09T14:58:04.654Z,8.90
2023-04-09T15:00:33.522Z,7.70
2023-04-09T15:03:04.245Z,8.70
2023-04-09T15:05:32.606Z,9.20
2023-04-09T15:08:01.526Z,9.30
2023-04-09T15:10:30.314Z,9.00
2023-04-09T15:12:58.568Z,9.80
2023-04-09T15:15:27.360Z,8.70
2023-04-09T15:17:56.194Z,8.70
2023-04-09T15:20:24.317Z,8.30
2023-04-09T15:22:52.797Z,8.20
2023-04-09T15:25:21.412Z,8.60
2023-04-09T15:27:50.068Z,9.40
2023-04-09T15:30:18.342Z,9.50
2023-04-09T15:32:46.414Z,7.90
2023-04-09T15:35:19.144Z,7.70
2023-04-09T15:37:47.588Z,8.90
2023-04-09T15:40:17.223Z,9.80
2023-04-09T15:42:45.885Z,9.00
2023-04-09T15:45:17.679Z,8.20
2023-04-09T15:47:46.660Z,7.90
2023-04-09T15:50:15.722Z,8.70
2023-04-09T15:52:44.095Z,8.10
2023-04-09T15:55:12.489Z,8.50
2023-04-09T15:57:47.208Z,8.30
2023-04-09T16:00:16.341Z,9.50
2023-04-09T16:02:45.194Z,8.20
2023-04-09T16:05:15.728Z,8.90
2023-04-09T16:07:44.015Z,8.50
2023-04-09T16:10:14.920Z,7.40
2023-04-09T16:12:45.573Z,7.70
2023-04-09T16:15:16.032Z,7.60
2023-04-09T16:17:46.041Z,8.30
2023-04-09T16:20:14.396Z,8.00
2023-04-09T16:22:44.852Z,7.50
2023-04-09T16:25:17.199Z,8.30
2023-04-09T16:27:45.583Z,8.80
2023-04-09T16:30:14.061Z,7.20
2023-04-09T16:32:42.272Z,8.60
2023-04-09T16:35:10.732Z,9.30
2023-04-09T16:37:39.189Z,7.40
2023-04-09T16:40:09.235Z,7.20
2023-04-09T16:42:37.619Z,7.60
2023-04-09T16:45:06.794Z,8.00
2023-04-09T16:47:35.085Z,7.10
2023-04-09T16:50:11.503Z,7.70
2023-04-09T16:52:43.839Z,7.60
2023-04-09T16:55:12.649Z,7.10
2023-04-09T16:57:42.242Z,6.70
2023-04-09T17:00:13.155Z,7.90
2023-04-09T17:02:41.788Z,7.60
2023-04-09T17:05:10.814Z,6.70
2023-04-09T17:07:39.451Z,6.80
2023-04-09T17:10:08.954Z,7.10
2023-04-09T17:12:38.234Z,7.60
2023-04-09T17:15:07.918Z,7.00
2023-04-09T17:17:37.446Z,7.50
2023-04-09T17:20:06.952Z,6.50
2023-04-09T17:22:35.851Z,6.90
2023-04-09T17:25:05.026Z,7.00
2023-04-09T17:27:35.905Z,6.70
2023-04-09T17:30:05.109Z,6.30
2023-04-09T17:32:33.373Z,6.50
2023-04-09T17:35:03.761Z,7.20
2023-04-09T17:37:32.895Z,6.10
2023-04-09T17:40:05.135Z,7.50
2023-04-09T17:42:34.748Z,6.60
2023-04-09T17:45:04.824Z,6.70
2023-04-09T17:47:33.382Z,7.20
2023-04-09T17:50:02.026Z,6.70
2023-04-09T17:52:36.790Z,6.10
2023-04-09T17:55:13.474Z,6.40
2023-04-09T17:57:45.085Z,6.20
2023-04-09T18:00:16.399Z,6.70
2023-04-09T18:02:48.379Z,7.10
2023-04-09T18:05:16.916Z,6.00
2023-04-09T18:07:45.972Z,6.50
2023-04-09T18:10:14.662Z,6.20
2023-04-09T18:12:42.978Z,7.50
2023-04-09T18:15:12.028Z,6.70
2023-04-09T18:17:40.619Z,6.40
2023-04-09T18:20:09.680Z,6.40
2023-04-09T18:22:38.623Z,6.70
2023-04-09T18:25:08.204Z,7.70
2023-04-09T18:27:37.403Z,7.70
2023-04-09T18:30:08.788Z,6.90
2023-04-09T18:32:39.341Z,7.10
2023-04-09T18:35:11.137Z,6.80
2023-04-09T18:37:39.827Z,7.40
2023-04-09T18:40:18.749Z,6.60
2023-04-09T18:42:55.048Z,7.30
2023-04-09T18:45:23.498Z,6.40
2023-04-09T18:47:52.455Z,6.80
2023-04-09T18:50:20.976Z,6.40
2023-04-09T18:52:49.868Z,7.10
2023-04-09T18:55:18.764Z,6.50
2023-04-09T18:57:47.658Z,7.80
2023-04-09T19:00:17.607Z,6.50
2023-04-09T19:02:46.583Z,6.70
2023-04-09T19:05:16.542Z,8.20
2023-04-09T19:07:49.770Z,6.80
2023-04-09T19:10:19.883Z,7.60
2023-04-09T19:12:54.030Z,8.10
2023-04-09T19:15:30.308Z,6.60
2023-04-09T19:18:00.045Z,7.10
2023-04-09T19:20:29.177Z,9.00
2023-04-09T19:22:58.589Z,7.10
2023-04-09T19:25:29.116Z,6.90
2023-04-09T19:27:58.221Z,7.60
2023-04-09T19:30:27.301Z,8.40
2023-04-09T19:32:56.013Z,9.00
2023-04-09T19:35:26.463Z,8.90
2023-04-09T19:37:58.089Z,7.80
2023-04-09T19:40:27.227Z,7.80
2023-04-09T19:42:56.262Z,7.80
2023-04-09T19:45:29.534Z,7.60
2023-04-09T19:47:58.635Z,8.90
2023-04-09T19:50:28.229Z,8.10
2023-04-09T19:52:59.250Z,7.60
2023-04-09T19:55:28.084Z,7.80
2023-04-09T19:57:56.772Z,7.50
2023-04-09T20:00:25.999Z,7.50
2023-04-09T20:02:56.051Z,8.30
2023-04-09T20:05:25.086Z,8.00
2023-04-09T20:07:55.000Z,8.60
2023-04-09T20:10:23.986Z,10.70
2023-04-09T20:12:52.576Z,8.20
2023-04-09T20:15:21.575Z,8.30
2023-04-09T20:17:51.509Z,8.50
2023-04-09T20:20:20.630Z,9.70
2023-04-09T20:22:56.428Z,8.90
2023-04-09T20:25:32.205Z,7.10
2023-04-09T20:28:02.685Z,7.20
2023-04-09T20:30:34.500Z,8.70
2023-04-09T20:33:05.004Z,7.60
2023-04-09T20:35:36.448Z,8.70
2023-04-09T20:38:06.271Z,7.80
2023-04-09T20:40:37.849Z,7.20
2023-04-09T20:43:05.876Z,8.40
2023-04-09T20:45:34.193Z,8.40
2023-04-09T20:48:03.146Z,8.00
2023-04-09T20:50:31.559Z,7.50
2023-04-09T20:53:00.374Z,9.80
2023-04-09T20:55:30.162Z,7.60
2023-04-09T20:58:00.494Z,8.20
2023-04-09T21:00:28.853Z,8.10
2023-04-09T21:02:57.309Z,9.10
2023-04-09T21:05:26.016Z,7.30
2023-04-09T21:07:54.713Z,9.00
2023-04-09T21:10:24.916Z,7.80
2023-04-09T21:12:53.608Z,9.70
2023-04-09T21:15:21.881Z,9.50
2023-04-09T21:17:50.446Z,8.90
2023-04-09T21:20:22.135Z,8.40
2023-04-09T21:22:50.813Z,8.60
2023-04-09T21:25:19.245Z,8.20
2023-04-09T21:27:47.685Z,8.20
2023-04-09T21:30:16.937Z,7.40
2023-04-09T21:32:45.458Z,7.60
2023-04-09T21:35:13.745Z,7.40
2023-04-09T21:37:44.192Z,7.30
2023-04-09T21:40:14.077Z,7.40
2023-04-09T21:42:42.985Z,7.70
2023-04-09T21:45:12.592Z,8.00
2023-04-09T21:47:42.055Z,7.60
2023-04-09T21:50:12.983Z,7.10
2023-04-09T21:52:42.061Z,7.40
2023-04-09T21:55:11.325Z,8.20
2023-04-09T21:57:40.012Z,7.60
2023-04-09T22:00:11.131Z,8.00
2023-04-09T22:02:39.653Z,7.80
2023-04-09T22:05:10.693Z,9.70
2023-04-09T22:07:42.744Z,8.70
2023-04-09T22:10:11.725Z,7.00
2023-04-09T22:12:40.381Z,7.60
2023-04-09T22:15:09.378Z,8.30
2023-04-09T22:17:39.043Z,8.70
2023-04-09T22:20:13.654Z,7.00
2023-04-09T22:22:42.760Z,8.60
2023-04-09T22:25:14.640Z,7.40
2023-04-09T22:27:44.232Z,7.60
2023-04-09T22:30:14.556Z,8.90
2023-04-09T22:32:43.499Z,7.30
2023-04-09T22:35:15.494Z,8.20
2023-04-09T22:37:47.256Z,8.10
2023-04-09T22:40:18.651Z,8.00
2023-04-09T22:42:48.773Z,7.40
2023-04-09T22:45:17.618Z,8.20
2023-04-09T22:47:46.153Z,7.10
2023-04-09T22:50:14.796Z,7.50
2023-04-09T22:52:43.569Z,7.90
2023-04-09T22:55:14.005Z,7.60
2023-04-09T22:57:43.167Z,7.00
2023-04-09T23:00:12.497Z,8.50
2023-04-09T23:02:42.778Z,7.80
2023-04-09T23:05:14.835Z,7.10
2023-04-09T23:07:45.134Z,7.40
2023-04-09T23:10:17.564Z,8.10
2023-04-09T23:12:45.880Z,7.90
2023-04-09T23:15:17.369Z,7.30
2023-04-09T23:17:46.584Z,7.00
2023-04-09T23:20:15.702Z,8.20
2023-04-09T23:22:48.069Z,6.80
2023-04-09T23:25:17.173Z,10.50
2023-04-09T23:27:45.448Z,6.90
2023-04-09T23:30:18.337Z,7.10
2023-04-09T23:32:53.818Z,7.30
2023-04-09T23:35:24.441Z,6.60
2023-04-09T23:37:54.123Z,6.80
2023-04-09T23:40:22.904Z,7.00
2023-04-09T23:42:52.483Z,7.40
2023-04-09T23:45:23.870Z,7.70
2023-04-09T23:47:53.241Z,6.80
2023-04-09T23:50:27.688Z,6.40
2023-04-09T23:53:01.207Z,7.20
2023-04-09T23:55:29.324Z,7.70
2023-04-09T23:57:57.738Z,6.00
